Weather observations for the past three days for
Middlesboro, Middlesboro-Bell County Airport
Metric (Imperial)
Date Time (edt) Wind (kph) Vis. (km) Weather Sky Cond. Temperature (ºC) Relative Humidity Wind Chill (°C) Heat Index (°C) Pressure Precipitation (cm)
Air Dwpt 6 hour altimeter (cm) sea level (mb) 1 hr 3 hr 6 hr
Max. Min.
02 12:55 NE 20 16.09 Partly Cloudy SCT070 0 0 0% 76.25 0.0
02 12:35 N 7 16.09 Fair CLR 0 0 0% 76.25 0.0
02 12:15 NW 13 16.09 Fair CLR 0 0 0% 76.28 0.0
02 11:55 NE 13 16.09 Fair CLR 0 0 0% 76.28 0.0
02 11:35 N 15 16.09 Fair CLR 0 0 0% 76.28 0.0
02 11:15 N 6 16.09 Fair CLR 0 0 0% 76.28 0.0
02 10:55 NE 7 16.09 Fair CLR 0 0 0% 76.3 0.0
02 10:35 NE 13 16.09 Fair CLR 0 0 0% 76.3 0.0
02 10:15 NE 9 16.09 Fair CLR 0 0 0% 76.28 0.0
02 09:55 NE 9 16.09 Fair CLR 0 0 0% 76.3 0.0
02 09:35 NE 11 16.09 Fair CLR 0 0 0% 76.28 0.0
02 09:15 Calm 16.09 Fair CLR 0 0 0% 76.28 0.0
02 08:55 Calm 16.09 Fair CLR 0 0 0% 76.28 0.0
02 08:35 Calm 16.09 Fair CLR 0 0 0% 76.28 0.0
02 08:15 Calm 16.09 Fair CLR 0 0 0% 76.28 0.0
02 07:55 Calm 16.09 Fair CLR 0 0 0% 76.25 0.0
02 07:35 Calm 16.09 Fair CLR 0 0 0% 76.25 0.0
02 07:15 Calm 16.09 Fair CLR 0 0 0% 76.25 0.0
02 06:55 Calm 16.09 Fair CLR 0 0 0% 76.25 0.0
02 06:35 Calm 16.09 Fair CLR 0 0 0% 76.25 0.0
02 06:15 Calm 16.09 Fair CLR 0 0 0% 76.23 0.0
02 05:55 Calm 16.09 Fair CLR 0 0 0% 76.23 0.0
02 05:35 Calm 16.09 Fair CLR 0 0 0% 76.2 0.0
02 05:15 Calm 16.09 Fair CLR 0 0 0% 76.2 0.0
02 04:55 Calm 16.09 Fair CLR 0 0 0% 76.23 0.0
02 04:35 Calm 16.09 Fair CLR 0 0 0% 76.25 0.0
02 04:15 W 7 16.09 Fair CLR 0 0 0% 76.23 0.0
02 03:55 Calm 16.09 Fair CLR 0 0 0% 76.25 0.0
02 03:35 S 6 16.09 Fair CLR 0 0 0% 76.25 0.0
02 03:15 NW 6 16.09 Fair CLR 0 0 0% 76.23 0.0
02 02:55 Calm 16.09 Fair CLR 0 0 0% 76.23 0.0
02 02:35 Calm 16.09 Fair CLR 0 0 0% 76.25 0.0
02 02:15 Calm 16.09 Fair CLR 0 0 0% 76.23 0.0
02 01:55 Calm 16.09 Fair CLR 0 0 0% 76.25 0.0
02 01:35 NW 9 16.09 Fair CLR 0 0 0% 76.25 0.0
02 01:15 NW 9 16.09 Fair CLR 0 0 0% 76.25 0.0
02 00:55 NW 6 16.09 Fair CLR 0 0 0% 76.25 0.0
02 00:35 N 6 16.09 Fair CLR 0 0 0% 76.23 0.0
02 00:15 N 9 16.09 Fair CLR 0 0 0% 76.23 0.0
01 23:55 N 11 16.09 Fair CLR 0 0 0% 76.23 0.0
01 23:35 N 6 16.09 Fair CLR 0 0 0% 76.23 0.0
01 23:15 NW 9 16.09 Fair CLR 0 0 0% 76.23 0.0
01 22:55 N 7 16.09 Fair CLR 0 0 0% 76.23 0.0
01 22:35 NW 19 16.09 Fair CLR 0 0 0% 76.2 0.0
01 22:15 N 13 16.09 Fair CLR 0 0 0% 76.2 0.0
01 21:35 N 11 16.09 Mostly Cloudy BKN055 BKN065 0 0 0% 76.15 0.0
01 21:15 NW 9 16.09 Overcast BKN050 OVC065 0 0 0% 76.12 0.0
01 20:55 NW 6 16.09 Overcast OVC050 0 0 0% 76.1 0.0
01 20:35 NW 6 16.09 Overcast OVC050 0 0 0% 76.07 0.0
01 20:15 NW 7 16.09 Overcast OVC050 0 0 0% 76.07 0.0
01 19:55 NW 11 16.09 Mostly Cloudy BKN050 BKN065 0 0 0% 76.05 0.0
01 19:35 N 11 16.09 Mostly Cloudy BKN050 0 0 0% 76 0.0
01 19:15 NW 19 16.09 Partly Cloudy SCT060 SCT080 0 0 0% 75.97 0.0
01 18:55 NW 17 G 28 16.09 Overcast SCT070 OVC080 0 0 0% 75.97 0.0
01 18:35 NW 15 16.09 Overcast SCT070 OVC080 0 0 0% 75.97 0.0
01 18:15 N 15 16.09 Overcast SCT070 OVC080 0 0 0% 75.97 0.0
01 17:55 NW 15 16.09 Overcast BKN070 BKN080 OVC090 0 0 0% 75.95 0.0
01 17:35 N 17 16.09 Overcast BKN075 OVC090 0 0 0% 75.95 0.0
01 17:15 N 13 16.09 Overcast BKN075 OVC090 0 0 0% 75.95 0.0
01 16:55 NW 15 16.09 Overcast SCT085 OVC090 0 0 0% 75.97 0.0
01 16:35 NW 17 G 30 16.09 Overcast SCT075 OVC085 0 0 0% 75.97 0.0
01 16:15 NW 7 G 30 16.09 Mostly Cloudy BKN075 BKN085 0 0 0% 75.97 0.0
01 15:55 W 15 16.09 Mostly Cloudy SCT075 BKN085 0 0 0% 76 0.0
01 15:35 W 11 16.09 Partly Cloudy SCT075 SCT085 0 0 0% 76 0.0
01 15:15 NW 15 16.09 Partly Cloudy SCT075 0 0 0% 76 0.0
01 14:55 W 17 16.09 Fair CLR 0 0 0% 76.02 0.0
01 14:35 W 13 16.09 Fair CLR 0 0 0% 76.05 0.0
01 14:15 W 9 16.09 Fair CLR 0 0 0% 76.05 0.0
01 13:55 NW 13 16.09 Fair CLR 19.8 3 20.3 5 33% 76.05 0.0
01 13:35 NW 15 16.09 Fair CLR 19.3 1.9 31% 76.05 0.0
01 13:15 NE 7 16.09 Fair CLR 19.1 2.1 32% 76.07 0.0
01 12:55 NW 7 16.09 Fair CLR 18.9 1.4 31% 76.1 0.0
01 12:35 Calm 16.09 Fair CLR 17.9 2.6 36% 76.1 0.0
01 12:15 S 7 16.09 Fair CLR 17.2 2.8 38% 76.12 0.0
01 11:55 S 9 16.09 Fair CLR 17.3 3 39% 76.12 0.0
01 11:35 S 9 16.09 Fair CLR 16.5 2.6 40% 76.12 0.0
01 11:15 S 11 16.09 Fair CLR 15.9 2.2 40% 76.15 0.0
01 10:55 S 6 16.09 Fair CLR 15.2 3.3 45% 76.15 0.0
01 10:35 Calm 16.09 Fair CLR 14.1 4.3 52% 76.15 0.0
01 10:15 Calm 16.09 Fair CLR 12.5 5.4 62% 76.17 0.0
01 09:55 Calm 16.09 Fair CLR 10.8 5.8 71% 76.17 0.0
01 09:35 Calm 16.09 Fair CLR 9.2 5.5 78% 76.2 0.0
01 09:15 Calm 16.09 Fair CLR 8 5.1 82% 76.2 0.0
01 08:55 Calm 16.09 Fair CLR 6.4 4.3 87% 76.23 0.0
01 08:35 Calm 16.09 Fair CLR 5.8 4.2 90% 76.2 0.0
01 08:15 Calm 16.09 Fair CLR 5.6 4.2 91% 76.2 0.0
01 07:55 Calm 16.09 Fair CLR 4.9 3.8 5.9 3.8 93% 76.2 0.0
01 07:35 Calm 16.09 Fair CLR 4.5 3.5 93% 76.2 0.0
01 07:15 Calm 16.09 Fair CLR 4.3 3.5 95% 76.17 0.0
01 06:55 Calm 16.09 Fair CLR 4.3 3.3 93% 76.15 0.0
01 06:35 Calm 16.09 Fair CLR 4.1 3.2 94% 76.17 0.0
01 06:15 Calm 16.09 Fair CLR 4 3 93% 76.17 0.0
01 05:55 Calm 16.09 Fair CLR 3.9 3 94% 76.17 0.0
01 05:35 Calm 16.09 Fair CLR 4.1 3.5 96% 76.17 0.0
01 05:15 Calm 16.09 Fair CLR 3.9 3 94% 76.17 0.0
01 04:55 Calm 16.09 Fair CLR 3.9 3.1 95% 76.17 0.0
01 04:35 Calm 16.09 Fair CLR 3.9 3.1 95% 76.2 0.0
01 04:15 Calm 16.09 Fair CLR 4.1 3.2 94% 76.2 0.0
01 03:55 Calm 16.09 Fair CLR 4.5 3.5 93% 76.2 0.0
01 03:35 Calm 16.09 Fair CLR 4.5 3.5 93% 76.2 0.0
01 03:15 Calm 16.09 Fair CLR 4.6 3.5 93% 76.23 0.0
01 02:55 Calm 16.09 Fair CLR 5 4 93% 76.23 0.0
01 02:35 Calm 16.09 Fair CLR 5 3.9 93% 76.2 0.0
01 02:15 Calm 16.09 Fair CLR 5.5 4 90% 76.23 0.0
01 01:55 Calm 16.09 Fair CLR 6 4.5 90% 76.23 0.0
01 01:35 Calm 16.09 Fair CLR 6.2 4.5 89% 76.23 0.0
01 01:15 Calm 16.09 Fair CLR 6.1 3.8 85% 76.25 0.0
01 00:55 Calm 16.09 Fair CLR 6.7 4.2 84% 76.25 0.0
01 00:35 Calm 16.09 Fair CLR 7 4 81% 76.25 0.0
01 00:15 Calm 16.09 Fair CLR 6.3 3.8 84% 76.25 0.0
30 23:55 Calm 16.09 Fair CLR 0 0 0% 76.25 0.0
30 23:35 Calm 16.09 Fair CLR 0 0 0% 76.25 0.0
30 23:15 Calm 16.09 Fair CLR 0 0 0% 76.25 0.0
30 22:55 NW 6 16.09 Fair CLR 0 0 0% 76.25 0.0
30 22:35 Calm 16.09 Fair CLR 0 0 0% 76.25 0.0
30 22:15 SW 6 16.09 Fair CLR 0 0 0% 76.23 0.0
30 21:55 Calm 16.09 Fair CLR -23.6 -35 34% 76.2 0.0
30 21:35 Calm 16.09 Fair CLR -11.3 -22.1 41% 76.2 0.0
30 21:15 Calm 16.09 Fair CLR -0.5 -9.7 50% 76.17 0.0
30 20:55 Calm 16.09 Fair CLR 0.2 -7.8 55% 76.15 0.0
30 20:35 NW 6 16.09 Fair CLR 0.2 -9.1 50% 76.12 0.0
30 20:15 Calm 16.09 Fair CLR 2.9 -10 38% 76.12 0.0
30 19:55 NW 6 16.09 Fair CLR 5.4 -10.2 9 5.1 32% 76.1 0.0
30 19:35 N 9 16.09 Fair CLR 6.1 -11 28% 4 76.1 0.0
30 19:15 NW 9 16.09 Fair CLR 7.2 -11 26% 6 76.1 0.0
30 18:55 N 11 16.09 Fair CLR 7.1 -11.4 26% 5 76.1 0.0
30 18:35 Calm 16.09 Fair CLR 8 -11.7 24% 76.1 0.0
30 18:15 N 11 16.09 Fair CLR 7.9 -11.9 23% 6 76.1 0.0
30 17:55 NW 15 16.09 Fair CLR 8.5 -11.3 24% 6 76.1 0.0
30 17:35 NW 19 G 26 16.09 Fair CLR 8.4 -11.7 23% 6 76.07 0.0
30 17:15 N 15 16.09 Fair CLR 8.7 -11.4 23% 7 76.1 0.0
30 16:55 N 9 16.09 Fair CLR 8.5 -11.9 22% 7 76.1 0.0
30 16:35 N 15 16.09 Fair CLR 8.4 -11.9 23% 6 76.12 0.0
30 16:15 N 11 16.09 Fair CLR 8.3 -11.2 24% 7 76.12 0.0
30 15:55 N 6 G 17 16.09 Fair CLR 7.8 -10.5 26% 76.12 0.0
30 15:35 NE 11 16.09 Fair CLR 7.9 -10.8 26% 6 76.15 0.0
30 15:15 N 19 G 28 16.09 Fair CLR 7.7 -10 28% 5 76.15 0.0
30 14:55 N 13 16.09 Fair CLR 7.1 -9.7 29% 5 76.15 0.0
30 14:35 NE 15 G 28 16.09 Fair CLR 6.8 -10.1 29% 4 76.15 0.0
30 14:15 N 15 G 28 16.09 Fair CLR 6.9 -9.9 29% 4 76.17 0.0
30 13:55 NW 15 G 31 16.09 Partly Cloudy SCT050 5.8 -9.8 32% 3 76.17 0.0
30 13:35 W 7 G 26 16.09 Fair CLR 5.5 -10 32% 4 76.15 0.0
30 13:15 NW 17 16.09 Partly Cloudy SCT050 4.9 -9.5 35% 2 76.17 0.0
30 12:55 N 17 16.09 Partly Cloudy SCT050 5 -9.5 35% 2 76.2 0.0
30 12:35 N 15 16.09 Mostly Cloudy BKN048 4.2 -9.9 35% 1 76.2 0.0
30 12:15 N 13 16.09 Mostly Cloudy BKN046 3.4 -9.9 37% 0 76.2 0.0
30 11:55 W 11 16.09 Mostly Cloudy SCT040 BKN046 3.2 -10.4 37% 1 76.2 0.0
30 11:35 N 13 16.09 Mostly Cloudy BKN038 BKN046 2.3 -9.6 41% -1 76.2 0.0
30 11:15 N 11 16.09 Mostly Cloudy SCT035 BKN043 BKN049 1.7 -9 45% -1 76.2 0.0
30 10:55 N 13 16.09 Overcast SCT031 BKN038 OVC043 1 -9.6 45% -2 76.2 0.0
30 10:35 N 17 16.09 Overcast SCT030 SCT036 OVC045 0.4 -9.5 48% -4 76.2 0.0
30 10:15 NE 15 16.09 Overcast BKN034 OVC040 -0.4 -9.7 50% -4 76.2 0.0
30 09:55 NW 13 16.09 Overcast SCT035 OVC041 0.2 -9.5 49% -3 76.2 0.0
30 09:35 N 9 16.09 Overcast SCT029 BKN037 OVC045 0 0 0% 76.17 0.0
30 09:15 N 11 16.09 Overcast BKN029 OVC035 0 0 0% 76.17 0.0
30 08:55 NE 15 16.09 Mostly Cloudy BKN032 0 0 0% 76.17 0.0
30 08:35 N 11 16.09 Fair CLR 0 0 0% 76.17 0.0
30 08:15 N 9 16.09 Fair CLR 0 0 0% 76.15 0.0
30 07:55 N 19 G 28 16.09 Fair CLR 0 0 0% 76.15 0.0
30 07:35 N 9 16.09 Partly Cloudy SCT039 SCT047 0 0 0% 76.12 0.0
30 07:15 N 6 16.09 Mostly Cloudy BKN039 BKN045 0 0 0% 76.12 0.0
30 06:55 N 9 16.09 Overcast OVC043 0 0 0% 76.12 0.0
30 06:35 N 13 16.09 Overcast OVC049 0 0 0% 76.1 0.0
30 06:15 NW 17 16.09 Overcast OVC049 0 0 0% 76.1 0.0
30 05:55 NW 19 16.09 Overcast OVC048 0 0 0% 76.07 0.0
30 05:35 NW 15 16.09 Overcast OVC050 0 0 0% 76.05 0.0
30 05:15 NW 13 16.09 Overcast OVC048 0 0 0% 76 0.0
30 04:55 NW 11 16.09 Overcast OVC048 0 0 0% 76.02 0.0
30 04:35 NW 9 16.09 Mostly Cloudy BKN046 -22.3 -32.2 40% -29 76 0.0
30 04:15 NW 9 16.09 Mostly Cloudy BKN046 -21.3 -31.8 38% -28 75.97 0.0
30 03:55 W 7 16.09 Overcast SCT029 OVC046 -18 -28.2 41% -23 76 0.0
30 03:35 NW 7 16.09 Mostly Cloudy BKN044 -18.8 -28.3 43% -24 75.95 0.0
30 03:15 Calm 16.09 Partly Cloudy SCT042 -17.5 -28.3 39% 75.95 0.0
30 02:55 N 6 16.09 Mostly Cloudy BKN042 -18.2 -26.7 47% 75.97 0.0
30 02:35 Calm 16.09 Fair CLR -18.5 -25.8 53% 76 0.0
30 02:15 Calm 16.09 Fair CLR -19.8 -25.6 60% 76.05 0.0
30 01:55 Calm 16.09 Partly Cloudy SCT047 SCT050 -17.8 -23.8 13.4 -25.6 60% 76.1 0.0
30 01:35 Calm 16.09 Overcast OVC050 -18.9 -24.9 59% 76.12 0.0
30 01:15 Calm 16.09 Overcast OVC050 -18.8 -25.1 58% 76.12 0.0
30 00:55 Calm 16.09 Mostly Cloudy BKN050 -20.2 -26.4 58% 76.15 0.0
30 00:35 NW 6 16.09 Partly Cloudy SCT042 SCT050 -17.1 -23.1 60% 76.1 0.0
30 00:15 Calm 16.09 Mostly Cloudy SCT042 BKN048 -16.5 -22.4 61% 76.1 0.0
29 23:55 Calm 16.09 Partly Cloudy SCT050 -22.6 -29.7 52% 76.07 0.0
29 23:15 Calm 16.09 Partly Cloudy SCT048 3.3 0.3 81% 76.1 0.0
29 22:55 Calm 16.09 Fair CLR 7.1 4.2 82% 76.1 0.0
29 22:35 Calm 16.09 Fair CLR 7.3 4.7 84% 76.07 0.0
29 22:15 Calm 16.09 Fair CLR 9 5.5 79% 76.07 0.0
29 21:55 Calm 16.09 Fair CLR 9.8 5.6 75% 76.05 0.0
29 21:35 Calm 16.09 Partly Cloudy SCT047 10.9 5.4 69% 76.02 0.0
29 21:15 N 7 16.09 Mostly Cloudy BKN049 11.8 6 68% 76 0.0
29 20:55 NW 7 16.09 Partly Cloudy SCT047 13.2 7.2 67% 76 0.0
29 20:35 NW 11 16.09 Partly Cloudy SCT029 -2.4 -11.6 50% -6 76 0.0
29 20:15 NW 15 G 31 16.09 Mostly Cloudy BKN027 BKN036 BKN044 0.8 -8.1 52% -3 75.97 0.0
29 19:55 NW 15 G 28 16.09 Mostly Cloudy BKN025 BKN034 BKN046 1.2 -7.2 23.2 -3.4 54% -3 75.92 0.0 0.03
29 19:35 NW 17 G 30 16.09 Mostly Cloudy SCT036 BKN046 BKN055 1.6 -7 53% -2 75.9 0.0
29 19:15 NW 20 G 28 16.09 Overcast SCT034 BKN047 OVC070 1.9 -7.1 52% -2 75.92 0.0
29 18:55 N 11 16.09 Overcast SCT038 BKN043 OVC070 3.1 -6.4 50% 0 75.9 0.0
29 18:35 NW 19 G 28 16.09 Overcast SCT039 BKN048 OVC070 3.3 -7.7 45% -1 75.87 0.0
29 17:55 NW 22 16.09 Mostly Cloudy BKN039 BKN075 4.6 -7.1 43% 1 75.82 0.0
29 17:35 NW 17 G 28 16.09 Partly Cloudy SCT050 SCT065 SCT075 4.9 -6.4 44% 2 75.82 0.0
29 17:15 W 11 G 26 16.09 Mostly Cloudy SCT046 SCT050 BKN065 3.9 -5.3 51% 1 75.82 0.0
29 16:55 NW 13 16.09 Mostly Cloudy SCT038 BKN060 BKN080 4.1 -4.1 56% 1 75.82 0.0 0.03 0.03
29 16:35 NW 17 G 35 16.09 Light Rain SCT035 BKN048 OVC060 1 -6.5 58% -3 75.82 0.0 0.03
29 16:15 W 15 G 28 16.09 Partly Cloudy SCT036 SCT060 -2.4 -17.7 30% -7 75.82 0.0
29 15:55 W 11 G 37 16.09 Partly Cloudy SCT036 SCT042 SCT050 10.5 -1.3 44% 75.79 0.0
29 15:35 W 11 G 37 16.09 Partly Cloudy SCT033 SCT041 21.2 12 56% 75.82 0.0
29 15:15 W 20 G 28 16.09 Partly Cloudy SCT033 SCT039 SCT045 21.9 13.5 59% 75.82 0.0
29 14:55 W 17 G 28 16.09 Overcast SCT029 BKN035 OVC070 23.2 15.2 61% 75.84 0.0
29 14:35 SW 9 16.09 Overcast BKN029 OVC036 22.3 15.7 66% 75.84 0.0
29 14:15 W 11 16.09 Overcast OVC027 21.5 15.5 69% 75.84 0.0
29 13:55 SW 6 16.09 Overcast OVC027 21.5 15.8 21.5 17.5 70% 75.84 0.0
29 13:35 W 7 11.27 Rain OVC027 19.6 15.6 78% 75.87 0.0
29 13:15 SE 7 16.09 Overcast OVC025 19.2 15 77% 75.87 0.0
Date Time (edt) Wind (kph) Vis. (km) Weather Sky Cond. Air Dwpt Max. Min. Relative Humidity Wind Chill (°C) Heat Index (°C) altimeter (cm) sea level (mb) 1 hr 3 hr 6 hr
6 hour
Temperature (ºC) Pressure Precipitation (cm)